Time;durP1;ratioP1;P1;durP2;ratioP2;P2;SDS_P1;SDS_P2;PMS_P1;PMS_P2;Temp;Humidity;BMP_temperature;BMP_pressure;BME280_temperature;BME280_humidity;BME280_pressure;Samples;Min_cycle;Max_cycle;Signal;HPM_P1;HPM_P2
2021/06/11 00:01:05;;;;;;;24.85;16.30;;;;;;;12.60;81.79;101635.59;5014419;28;20114;-76
2021/06/11 00:03:30;;;;;;;24.35;15.93;;;;;;;12.59;81.60;101630.28;4999602;28;20546;-76
2021/06/11 00:05:55;;;;;;;25.45;16.48;;;;;;;12.60;82.15;101638.31;4999362;28;20386;-76
2021/06/11 00:08:21;;;;;;;24.70;15.43;;;;;;;12.57;82.30;101626.78;4999206;28;20386;-78
2021/06/11 00:10:47;;;;;;;25.35;17.60;;;;;;;12.54;82.61;101621.59;5015163;28;20049;-77
2021/06/11 00:13:14;;;;;;;25.67;17.48;;;;;;;12.51;82.10;101617.22;4994064;28;20084;-77
2021/06/11 00:15:40;;;;;;;25.85;18.35;;;;;;;12.54;83.17;101626.97;4983036;28;20021;-77
2021/06/11 00:18:05;;;;;;;26.35;17.90;;;;;;;12.52;83.67;101634.25;5015239;28;20505;-77
2021/06/11 00:20:31;;;;;;;26.17;18.00;;;;;;;12.53;83.65;101633.28;5015248;28;20026;-76
2021/06/11 00:22:56;;;;;;;24.27;16.92;;;;;;;12.50;83.92;101626.25;5015306;28;20056;-77
2021/06/11 00:25:24;;;;;;;25.42;17.02;;;;;;;12.46;83.86;101623.78;5015147;28;20022;-75
2021/06/11 00:27:51;;;;;;;25.58;18.08;;;;;;;12.51;83.69;101633.41;5015108;28;20032;-75
2021/06/11 00:30:18;;;;;;;26.70;17.80;;;;;;;12.51;83.36;101628.00;4998582;28;20393;-76
2021/06/11 00:32:43;;;;;;;;;;;;;;;12.55;83.83;101624.16;4998984;28;20366;-76
2021/06/11 00:35:09;;;;;;;30.88;20.02;;;;;;;12.56;83.09;101627.75;4998941;28;19919;-75
2021/06/11 00:37:35;;;;;;;27.02;18.98;;;;;;;12.60;83.57;101623.94;4998587;28;20486;-76
2021/06/11 00:40:01;;;;;;;32.22;21.27;;;;;;;12.59;83.72;101625.75;5015178;28;20034;-77
2021/06/11 00:42:29;;;;;;;31.30;18.85;;;;;;;12.60;83.67;101624.81;5015245;28;20030;-77
2021/06/11 00:44:54;;;;;;;27.23;19.30;;;;;;;12.61;84.04;101620.28;5014741;28;20026;-77
2021/06/11 00:47:20;;;;;;;29.58;19.55;;;;;;;12.58;83.75;101613.25;5014640;28;20032;-77
2021/06/11 00:49:48;;;;;;;23.90;17.50;;;;;;;12.58;84.04;101617.78;5015075;28;20022;-76
2021/06/11 00:52:14;;;;;;;24.73;17.48;;;;;;;12.59;83.94;101617.69;5014882;28;20631;-76
2021/06/11 00:54:39;;;;;;;24.65;17.38;;;;;;;12.58;84.15;101624.03;5014542;28;20033;-75
2021/06/11 00:57:05;;;;;;;24.50;18.08;;;;;;;12.55;83.95;101615.22;5013536;28;20018;-76
2021/06/11 00:59:30;;;;;;;29.65;16.90;;;;;;;12.54;84.16;101613.50;5014242;28;20516;-74
2021/06/11 01:01:55;;;;;;;28.70;18.35;;;;;;;12.53;84.12;101612.63;5014582;28;20080;-75
2021/06/11 01:04:21;;;;;;;24.95;18.33;;;;;;;12.52;84.66;101612.69;5015703;28;20104;-76
2021/06/11 01:06:48;;;;;;;24.52;17.40;;;;;;;12.53;84.45;101618.03;5014180;28;20045;-75
2021/06/11 01:09:14;;;;;;;27.70;17.50;;;;;;;12.49;84.96;101612.88;4997458;28;20033;-77
2021/06/11 01:11:41;;;;;;;26.13;17.30;;;;;;;12.55;83.98;101607.13;5014734;28;20029;-76
2021/06/11 01:14:06;;;;;;;28.60;19.77;;;;;;;12.52;84.29;101615.38;5014602;28;20026;-76
2021/06/11 01:16:32;;;;;;;24.20;17.40;;;;;;;12.54;84.66;101617.06;4998547;28;20454;-77
2021/06/11 01:18:57;;;;;;;26.60;17.65;;;;;;;12.50;84.40;101609.22;5015815;28;20525;-76
2021/06/11 01:21:23;;;;;;;30.33;17.10;;;;;;;12.52;84.85;101618.94;4998244;28;20121;-78
2021/06/11 01:24:15;;;;;;;27.13;18.17;;;;;;;12.50;84.88;101618.16;5014479;28;20080;-77
2021/06/11 01:26:43;;;;;;;26.45;18.38;;;;;;;12.50;85.55;101609.22;5004957;28;20548;-76
2021/06/11 01:29:16;;;;;;;28.30;18.48;;;;;;;12.49;85.55;101607.47;4997756;28;20057;-76
2021/06/11 01:31:46;;;;;;;26.80;19.77;;;;;;;12.45;85.01;101601.38;5011040;28;20057;-77
2021/06/11 01:34:21;;;;;;;31.77;21.25;;;;;;;12.50;85.66;101609.22;4994927;28;20023;-77
2021/06/11 01:36:49;;;;;;;29.65;20.67;;;;;;;12.50;84.86;101614.59;4994713;28;20493;-77
2021/06/11 01:39:17;;;;;;;37.55;21.60;;;;;;;12.46;84.90;101611.19;4978374;28;20428;-76
2021/06/11 01:41:43;;;;;;;32.47;22.08;;;;;;;12.37;84.72;101604.47;4994761;28;20025;-77
2021/06/11 01:44:11;;;;;;;31.45;22.40;;;;;;;12.39;85.87;101616.03;4994251;28;20030;-75
2021/06/11 01:46:37;;;;;;;31.10;22.58;;;;;;;12.35;85.57;101616.28;5011360;28;20425;-77
2021/06/11 01:49:03;;;;;;;32.90;23.20;;;;;;;12.35;86.21;101611.75;5014112;28;20076;-76
2021/06/11 01:51:29;;;;;;;33.30;20.55;;;;;;;12.26;85.97;101595.22;5013921;28;20030;-78
2021/06/11 01:53:56;;;;;;;30.58;21.75;;;;;;;12.33;86.36;101612.78;5014165;28;20022;-77
2021/06/11 01:56:21;;;;;;;31.50;20.50;;;;;;;12.28;86.38;101615.72;4997648;28;20113;-78
2021/06/11 01:58:47;;;;;;;35.58;21.40;;;;;;;12.23;86.25;101609.72;5013809;28;20056;-76
2021/06/11 02:01:13;;;;;;;31.23;22.08;;;;;;;12.17;86.52;101594.72;5013546;28;20030;-77
2021/06/11 02:03:41;;;;;;;31.35;22.10;;;;;;;12.20;86.53;101609.84;5012450;28;20033;-75
2021/06/11 02:06:07;;;;;;;29.08;20.98;;;;;;;12.18;86.82;101609.94;5010451;28;20516;-77
2021/06/11 02:08:34;;;;;;;33.60;21.23;;;;;;;12.10;86.61;101598.69;4994033;28;20129;-77
2021/06/11 02:10:59;;;;;;;27.05;19.67;;;;;;;12.17;86.33;101615.41;5012371;28;20633;-77
2021/06/11 02:13:25;;;;;;;30.83;18.52;;;;;;;12.18;86.50;101617.13;5029982;28;20049;-76
2021/06/11 02:15:52;;;;;;;29.77;19.52;;;;;;;12.18;86.89;101622.53;5013570;28;20101;-76
2021/06/11 02:18:18;;;;;;;26.60;18.80;;;;;;;12.15;87.05;101612.78;5013345;28;20025;-77
2021/06/11 02:20:43;;;;;;;27.17;18.70;;;;;;;12.14;86.50;101604.78;5013454;28;20568;-77
2021/06/11 02:23:08;;;;;;;27.05;19.65;;;;;;;12.11;87.24;101596.84;5013741;28;20385;-76
2021/06/11 02:25:34;;;;;;;26.73;18.35;;;;;;;12.17;86.77;101610.03;4996799;28;20030;-77
2021/06/11 02:27:59;;;;;;;26.83;18.90;;;;;;;12.16;86.58;101611.84;4996823;28;20124;-76
2021/06/11 02:30:25;;;;;;;25.63;18.05;;;;;;;12.15;86.34;101602.00;4996819;28;20478;-76
2021/06/11 02:32:51;;;;;;;27.23;19.08;;;;;;;12.14;87.09;101612.88;5013392;28;20102;-76
2021/06/11 02:35:19;;;;;;;27.77;18.55;;;;;;;12.09;86.36;101604.13;4996893;28;20457;-76
2021/06/11 02:37:46;;;;;;;28.02;18.52;;;;;;;12.07;86.59;101606.94;5013207;28;20068;-76
2021/06/11 02:40:12;;;;;;;27.38;19.70;;;;;;;12.10;86.63;101611.28;4996688;28;20484;-76
2021/06/11 02:42:39;;;;;;;26.10;18.60;;;;;;;12.12;87.40;101607.56;5013758;28;20056;-76
2021/06/11 02:45:13;;;;;;;24.77;17.83;;;;;;;12.09;87.38;101613.13;4996864;28;20026;-76
2021/06/11 02:47:42;;;;;;;25.85;17.33;;;;;;;12.10;86.96;101612.16;5010861;28;20107;-77
2021/06/11 02:50:12;;;;;;;24.75;17.98;;;;;;;12.06;86.53;101604.31;5013178;28;20466;-76
2021/06/11 02:52:41;;;;;;;26.98;17.55;;;;;;;12.06;86.77;101605.16;4996547;28;20633;-77
2021/06/11 02:55:07;;;;;;;30.65;18.48;;;;;;;12.08;86.90;101613.19;4993214;28;20026;-76
2021/06/11 02:57:43;;;;;;;26.85;17.45;;;;;;;12.09;87.13;101612.22;5012463;28;20029;-77
2021/06/11 03:00:10;;;;;;;26.33;17.85;;;;;;;12.11;86.89;101616.56;5013039;28;20472;-77
2021/06/11 03:02:38;;;;;;;26.77;18.75;;;;;;;12.11;86.81;101615.72;5012653;28;20034;-76
2021/06/11 03:05:04;;;;;;;24.33;17.27;;;;;;;12.09;87.26;101604.13;5012896;28;20056;-77
2021/06/11 03:07:32;;;;;;;30.33;19.42;;;;;;;12.07;87.05;101606.03;5012522;28;20469;-76
2021/06/11 03:10:01;;;;;;;24.23;17.25;;;;;;;12.14;87.60;101610.19;4996163;28;20042;-77
2021/06/11 03:12:29;;;;;;;26.13;18.45;;;;;;;12.14;87.80;101612.88;5012729;28;20026;-77
2021/06/11 03:14:54;;;;;;;26.20;18.30;;;;;;;12.12;87.93;101612.09;5012120;28;20030;-77
2021/06/11 03:17:23;;;;;;;28.20;18.15;;;;;;;12.14;88.10;101607.50;5012520;28;20112;-76
2021/06/11 03:19:51;;;;;;;28.20;18.20;;;;;;;12.14;87.82;101610.19;4995899;28;20026;-77
2021/06/11 03:22:25;;;;;;;32.45;20.48;;;;;;;12.13;88.18;101603.03;5012519;28;20026;-77
2021/06/11 03:24:53;;;;;;;26.42;18.63;;;;;;;12.12;88.11;101601.31;4993793;28;20026;-76
2021/06/11 03:27:36;;;;;;;26.85;19.20;;;;;;;12.16;87.90;101608.25;4996006;28;20032;-77
2021/06/11 03:30:22;;;;;;;25.85;17.70;;;;;;;12.25;87.04;101606.91;4996193;28;20469;-76
2021/06/11 03:32:54;;;;;;;27.67;20.48;;;;;;;12.23;88.39;101598.94;5011473;28;20066;-77
2021/06/11 03:35:33;;;;;;;27.58;19.48;;;;;;;12.30;88.05;101608.44;5001192;28;20481;-77
2021/06/11 03:38:00;;;;;;;27.50;19.95;;;;;;;12.32;87.65;101606.53;5013535;28;20026;-77
2021/06/11 03:40:30;;;;;;;28.35;18.98;;;;;;;12.38;87.64;101606.19;5012214;28;20497;-77
2021/06/11 03:42:56;;;;;;;29.02;19.42;;;;;;;12.42;88.07;101599.72;5012271;28;20026;-77
2021/06/11 03:45:23;;;;;;;30.63;19.50;;;;;;;12.49;87.66;101605.66;5012130;28;20080;-77
2021/06/11 03:47:48;;;;;;;26.50;19.65;;;;;;;12.56;87.92;101600.81;5012134;28;20032;-76
2021/06/11 03:50:19;;;;;;;26.83;18.80;;;;;;;12.66;86.57;101604.75;4995809;28;20034;-77
2021/06/11 03:52:47;;;;;;;29.83;20.10;;;;;;;12.72;86.43;101604.41;5011991;28;20443;-77
2021/06/11 03:55:21;;;;;;;25.67;17.73;;;;;;;12.78;86.42;101600.50;4993992;28;20022;-76
2021/06/11 03:57:51;;;;;;;28.15;19.35;;;;;;;12.86;86.99;101606.38;4996949;28;20539;-77
2021/06/11 04:00:18;;;;;;;30.15;19.48;;;;;;;12.93;87.08;101610.47;5012124;28;20030;-77
2021/06/11 04:02:44;;;;;;;27.00;19.25;;;;;;;12.96;86.51;101602.22;5011835;28;20030;-77
2021/06/11 04:05:09;;;;;;;27.40;19.67;;;;;;;13.03;86.99;101591.94;5028489;28;20073;-76
2021/06/11 04:07:55;;;;;;;28.58;21.42;;;;;;;13.12;86.38;101588.75;4995192;28;20030;-77
2021/06/11 04:10:42;;;;;;;29.23;20.35;;;;;;;13.30;86.29;101591.38;4995478;28;20050;-76
2021/06/11 04:13:18;;;;;;;29.30;20.40;;;;;;;13.41;85.38;101597.94;5011869;28;20053;-77
2021/06/11 04:15:44;;;;;;;29.88;20.13;;;;;;;13.54;85.15;101598.09;5011751;28;20409;-77
2021/06/11 04:18:12;;;;;;;29.40;21.58;;;;;;;13.66;84.81;101600.09;5011983;28;20022;-78
2021/06/11 04:20:38;;;;;;;31.65;21.52;;;;;;;13.79;84.84;101592.16;4995572;28;20037;-77
2021/06/11 04:23:05;;;;;;;30.40;20.98;;;;;;;13.95;84.13;101602.03;5011665;28;20030;-76
2021/06/11 04:25:33;;;;;;;27.60;21.05;;;;;;;14.08;84.04;101597.66;5011827;28;20029;-76
2021/06/11 04:27:59;;;;;;;29.45;20.80;;;;;;;14.21;83.26;101598.66;5011727;28;20025;-78
2021/06/11 04:30:25;;;;;;;31.55;20.38;;;;;;;14.41;83.15;101594.78;4995387;28;20121;-76
2021/06/11 04:32:51;;;;;;;31.95;21.70;;;;;;;14.58;83.71;101595.59;5015297;28;20034;-76
2021/06/11 04:35:27;;;;;;;27.75;19.60;;;;;;;14.77;81.96;101592.63;5015608;28;20121;-77
2021/06/11 04:37:56;;;;;;;25.73;19.77;;;;;;;14.99;82.09;101603.81;5015306;28;20057;-76
2021/06/11 04:40:21;;;;;;;28.20;19.67;;;;;;;15.16;80.43;101602.75;5015368;28;20037;-76
2021/06/11 04:42:46;;;;;;;28.65;21.20;;;;;;;15.32;81.30;101605.34;5014896;28;20026;-76
2021/06/11 04:45:12;;;;;;;25.92;19.67;;;;;;;15.42;80.37;101598.34;4998664;28;20033;-75
2021/06/11 04:47:37;;;;;;;29.88;18.45;;;;;;;15.56;80.24;101598.31;5015272;28;20548;-77
2021/06/11 04:50:03;;;;;;;31.55;20.25;;;;;;;15.68;79.78;101604.75;5014955;28;20087;-76
2021/06/11 04:52:29;;;;;;;30.60;22.25;;;;;;;15.72;79.50;101600.03;4995606;28;20034;-77
2021/06/11 04:54:54;;;;;;;35.45;24.52;;;;;;;15.78;79.70;101596.91;4979377;28;20022;-76
2021/06/11 04:57:19;;;;;;;29.88;21.95;;;;;;;15.89;79.27;101598.91;4989573;28;20160;-77
2021/06/11 04:59:45;;;;;;;31.33;22.92;;;;;;;16.10;79.23;101596.59;5014965;28;20030;-76
2021/06/11 05:02:10;;;;;;;28.30;22.40;;;;;;;16.23;78.15;101589.34;5014565;28;20029;-76
2021/06/11 05:04:36;;;;;;;31.73;24.10;;;;;;;16.38;77.21;101588.31;5014927;28;20116;-75
2021/06/11 05:07:01;;;;;;;33.80;23.05;;;;;;;16.49;76.73;101587.53;5014997;28;20027;-76
2021/06/11 05:09:27;;;;;;;30.45;21.80;;;;;;;16.78;75.94;101590.06;5014696;28;20037;-76
2021/06/11 05:11:52;;;;;;;30.45;21.52;;;;;;;16.95;75.44;101588.88;5014877;28;20030;-76
2021/06/11 05:14:21;;;;;;;30.05;20.30;;;;;;;17.10;74.72;101589.59;5014982;28;20018;-78
2021/06/11 05:16:49;;;;;;;31.73;22.95;;;;;;;17.34;74.07;101585.09;4998317;28;20033;-77
2021/06/11 05:19:14;;;;;;;28.75;21.88;;;;;;;17.59;72.58;101577.81;4995231;28;20038;-78
2021/06/11 05:21:40;;;;;;;29.02;19.75;;;;;;;17.75;71.84;101575.69;4996223;28;20378;-76
2021/06/11 05:24:08;;;;;;;26.90;19.52;;;;;;;17.94;70.17;101580.66;4978528;28;20026;-77
2021/06/11 05:26:33;;;;;;;30.30;20.08;;;;;;;18.09;69.95;101581.31;5016843;28;20022;-77
2021/06/11 05:28:58;;;;;;;26.27;19.17;;;;;;;18.17;70.75;101584.31;5014523;28;20380;-76
2021/06/11 05:31:24;;;;;;;28.80;19.35;;;;;;;18.32;70.84;101575.94;5014337;28;20085;-77
2021/06/11 05:33:49;;;;;;;23.65;17.52;;;;;;;18.55;70.02;101594.06;5014213;28;20447;-77
2021/06/11 05:36:15;;;;;;;26.85;19.23;;;;;;;18.72;68.60;101574.50;5014090;28;20068;-77
2021/06/11 05:38:40;;;;;;;26.08;18.33;;;;;;;19.08;67.72;101580.75;5014263;28;20520;-77
2021/06/11 05:41:05;;;;;;;23.65;17.08;;;;;;;19.42;66.04;101585.28;5013736;28;20454;-77
2021/06/11 05:43:31;;;;;;;23.88;17.58;;;;;;;19.72;64.84;101576.44;5013448;28;20089;-77
2021/06/11 05:45:57;;;;;;;24.30;17.65;;;;;;;20.25;62.62;101584.66;5014100;28;20026;-79
2021/06/11 05:48:23;;;;;;;22.73;15.43;;;;;;;20.75;60.74;101578.56;5014000;28;20093;-79
2021/06/11 05:50:48;;;;;;;20.13;15.48;;;;;;;21.48;58.37;101575.69;4997635;28;20117;-79
2021/06/11 05:53:14;;;;;;;16.60;13.50;;;;;;;22.15;55.31;101577.59;5013617;28;20470;-78
2021/06/11 05:55:39;;;;;;;21.37;15.23;;;;;;;22.59;53.83;101569.78;5013900;28;20371;-79
2021/06/11 05:58:04;;;;;;;22.45;16.75;;;;;;;22.60;52.68;101557.78;5014034;28;20065;-78
2021/06/11 06:00:30;;;;;;;19.33;15.03;;;;;;;22.83;50.45;101568.41;5014159;28;20057;-79
2021/06/11 06:02:55;;;;;;;17.33;13.03;;;;;;;22.73;50.37;101571.19;5013686;28;20493;-78
2021/06/11 06:05:20;;;;;;;18.27;13.13;;;;;;;22.76;50.68;101576.34;5013891;28;20448;-77
2021/06/11 06:07:46;;;;;;;24.20;14.20;;;;;;;22.80;49.95;101572.31;5013597;28;20478;-77
2021/06/11 06:10:12;;;;;;;19.75;15.60;;;;;;;22.86;50.02;101577.19;5013195;28;20054;-78
2021/06/11 06:12:37;;;;;;;19.23;15.60;;;;;;;22.83;50.53;101576.63;5013467;28;20057;-78
2021/06/11 06:15:04;;;;;;;21.00;15.07;;;;;;;22.52;50.35;101574.13;5013897;28;20101;-80
2021/06/11 06:17:39;;;;;;;27.15;15.38;;;;;;;22.54;50.72;101568.50;4997000;28;20117;-80
2021/06/11 06:20:07;;;;;;;17.58;13.57;;;;;;;22.80;49.97;101555.00;4997403;28;20378;-81
2021/06/11 06:22:32;;;;;;;19.92;14.20;;;;;;;23.26;48.29;101561.47;4994002;28;20159;-81
2021/06/11 06:24:57;;;;;;;26.53;14.10;;;;;;;23.73;46.64;101569.53;4995560;28;20533;-81
2021/06/11 06:27:23;;;;;;;17.17;12.50;;;;;;;24.28;45.68;101563.03;4994568;28;20026;-79
2021/06/11 06:29:48;;;;;;;20.13;12.93;;;;;;;25.23;43.59;101563.13;5009078;28;20110;-80
2021/06/11 06:32:13;;;;;;;20.23;13.33;;;;;;;26.28;40.66;101558.00;5024280;28;20085;-81
2021/06/11 06:34:40;;;;;;;14.97;9.17;;;;;;;27.62;37.38;101560.03;5015129;28;20017;-81
2021/06/11 06:37:10;;;;;;;20.40;10.68;;;;;;;28.96;33.95;101561.25;5013538;28;20030;-81
2021/06/11 06:39:35;;;;;;;17.52;11.95;;;;;;;30.48;31.31;101546.59;5013537;28;20057;-80
2021/06/11 06:42:00;;;;;;;16.33;14.57;;;;;;;30.96;30.18;101563.34;5013778;28;20053;-83
2021/06/11 06:44:26;;;;;;;21.80;13.77;;;;;;;31.48;29.43;101561.91;5013384;28;20053;-81
2021/06/11 06:46:51;;;;;;;17.47;13.47;;;;;;;32.87;26.43;101560.34;4996995;28;20072;-82
2021/06/11 06:49:16;;;;;;;18.07;13.43;;;;;;;32.92;25.95;101554.97;4996869;28;20057;-81
2021/06/11 06:51:42;;;;;;;15.20;11.80;;;;;;;33.17;25.52;101557.06;5014924;28;20026;-83
2021/06/11 06:54:07;;;;;;;18.00;12.77;;;;;;;33.67;23.96;101533.03;5012154;28;20029;-81
2021/06/11 06:56:33;;;;;;;13.57;11.40;;;;;;;34.05;23.73;101545.22;5013333;28;20037;-90
2021/06/11 06:58:59;;;;;;;12.27;10.47;;;;;;;34.72;22.96;101551.09;5013204;28;20066;-84
2021/06/11 07:01:25;;;;;;;;;;;;;;;34.95;21.77;101556.88;4996261;28;20057;-79
2021/06/11 07:03:57;;;;;;;8.60;6.95;;;;;;;35.71;21.11;101554.63;5014263;28;19925;-82
2021/06/11 07:06:26;;;;;;;13.13;8.30;;;;;;;35.61;21.34;101554.34;5029583;28;20104;-84
2021/06/11 07:08:52;;;;;;;10.45;8.10;;;;;;;36.03;20.74;101548.75;5013600;28;20103;-88
2021/06/11 07:11:17;;;;;;;11.50;8.88;;;;;;;36.72;19.71;101553.88;5013327;28;20552;-78
2021/06/11 07:13:43;;;;;;;12.33;9.60;;;;;;;36.75;19.50;101551.41;5013232;28;20026;-81
2021/06/11 07:16:09;;;;;;;9.80;7.87;;;;;;;37.17;19.06;101556.00;5025729;28;20026;-84
2021/06/11 07:18:34;;;;;;;8.48;6.13;;;;;;;37.73;18.22;101554.34;5033338;28;20029;-88
2021/06/11 07:21:00;;;;;;;8.50;6.27;;;;;;;38.21;17.59;101555.78;5033351;28;20033;-83
2021/06/11 07:23:25;;;;;;;10.23;6.43;;;;;;;38.70;16.82;101553.19;5033000;28;20320;-84
2021/06/11 07:25:51;;;;;;;;;;;;;;;38.57;17.76;101561.97;5034728;28;20053;-84
2021/06/11 07:28:16;;;;;;;7.27;4.97;;;;;;;38.96;16.43;101544.31;5032784;28;19921;-82
2021/06/11 07:30:41;;;;;;;;;;;;;;;38.61;17.84;101560.38;5033486;28;20120;-83
2021/06/11 07:33:07;;;;;;;8.87;4.73;;;;;;;39.27;16.51;101559.59;5032725;28;20324;-85
2021/06/11 07:35:32;;;;;;;;;;;;;;;39.46;16.13;101569.44;5024523;28;20775;-84
2021/06/11 07:37:57;;;;;;;11.83;5.23;;;;;;;39.77;16.55;101566.94;5012593;28;20258;-81
2021/06/11 07:40:22;;;;;;;;;;;;;;;39.45;16.88;101569.69;5012871;28;20120;-80
2021/06/11 07:42:48;;;;;;;8.83;5.33;;;;;;;40.00;15.71;101562.13;4996242;28;19914;-84
2021/06/11 07:45:13;;;;;;;;;;;;;;;39.98;16.58;101568.00;5012815;28;20113;-78
2021/06/11 07:47:39;;;;;;;8.90;5.18;;;;;;;40.63;15.16;101571.66;5012720;28;19913;-82
2021/06/11 07:50:06;;;;;;;9.25;5.32;;;;;;;40.32;16.00;101559.34;5012525;28;20042;-81
2021/06/11 07:52:35;;;;;;;6.70;3.95;;;;;;;41.70;14.86;101568.53;5013694;28;20103;-82
2021/06/11 07:55:01;;;;;;;7.78;4.65;;;;;;;40.94;14.96;101569.03;5012589;28;20393;-81
2021/06/11 07:57:26;;;;;;;9.38;3.80;;;;;;;40.82;15.10;101562.78;5012501;28;20022;-81
2021/06/11 07:59:51;;;;;;;10.80;3.90;;;;;;;40.72;15.33;101561.59;5012423;28;20076;-82
2021/06/11 08:02:17;;;;;;;5.80;3.90;;;;;;;40.83;14.83;101559.69;5012381;28;20670;-81
2021/06/11 08:04:42;;;;;;;5.90;3.50;;;;;;;41.50;14.18;101568.44;5012494;28;20053;-81
2021/06/11 08:07:07;;;;;;;8.13;4.40;;;;;;;41.88;13.82;101555.84;5016590;28;20492;-81
2021/06/11 08:09:33;;;;;;;6.83;3.93;;;;;;;42.67;13.43;101553.59;5016129;28;20749;-81
2021/06/11 08:11:58;;;;;;;7.10;4.05;;;;;;;42.39;13.59;101555.06;5016219;28;20394;-81
2021/06/11 08:14:24;;;;;;;9.32;4.50;;;;;;;42.30;13.43;101546.28;5016529;28;20050;-81
2021/06/11 08:16:49;;;;;;;8.63;4.23;;;;;;;42.24;14.38;101553.94;5017352;28;20385;-83
2021/06/11 08:19:15;;;;;;;8.45;4.10;;;;;;;42.87;13.26;101550.75;5016314;28;20660;-80
2021/06/11 08:21:40;;;;;;;6.63;4.00;;;;;;;43.13;12.64;101550.63;5015976;28;20377;-81
2021/06/11 08:24:06;;;;;;;6.50;3.92;;;;;;;43.24;13.41;101546.66;4999449;28;20121;-81
2021/06/11 08:26:31;;;;;;;6.85;3.40;;;;;;;44.01;12.06;101534.88;4999680;28;20480;-80
2021/06/11 08:28:56;;;;;;;6.20;3.70;;;;;;;42.73;12.95;101538.34;5015735;28;20041;-81
2021/06/11 08:31:22;;;;;;;7.07;3.57;;;;;;;43.79;13.20;101548.59;5017206;28;20282;-81
2021/06/11 08:33:47;;;;;;;5.95;2.50;;;;;;;43.64;12.80;101541.91;5015908;28;20264;-82
2021/06/11 08:36:13;;;;;;;6.53;3.42;;;;;;;43.34;12.69;101525.97;5015980;28;20388;-81
2021/06/11 08:38:39;;;;;;;5.72;3.45;;;;;;;43.15;12.57;101539.88;4999219;28;20600;-80
2021/06/11 08:41:07;;;;;;;6.28;3.25;;;;;;;43.65;12.05;101551.25;4999306;28;20132;-84
2021/06/11 08:43:32;;;;;;;10.13;3.63;;;;;;;43.42;13.01;101550.78;5015553;28;20389;-80
2021/06/11 08:45:58;;;;;;;6.43;3.27;;;;;;;44.70;11.73;101546.94;5009329;28;20109;-88
2021/06/11 08:48:23;;;;;;;5.32;2.28;;;;;;;43.42;12.53;101541.44;4997443;28;20446;-81
2021/06/11 08:50:49;;;;;;;7.03;2.45;;;;;;;43.46;12.69;101549.06;5005077;28;20112;-82
2021/06/11 08:53:15;;;;;;;4.32;2.45;;;;;;;43.61;12.51;101545.34;4996733;28;20014;-81
2021/06/11 08:55:40;;;;;;;8.02;2.47;;;;;;;43.94;11.65;101539.13;5016821;28;20026;-82
2021/06/11 08:58:06;;;;;;;6.10;3.03;;;;;;;44.44;11.85;101543.53;5015918;28;20068;-82
2021/06/11 09:00:32;;;;;;;5.15;2.50;;;;;;;45.11;11.44;101552.13;5015401;28;20303;-82
2021/06/11 09:03:20;;;;;;;7.18;2.45;;;;;;;46.35;10.06;101534.06;5015564;28;20381;-84
2021/06/11 09:05:47;;;;;;;6.25;2.10;;;;;;;45.96;10.75;101538.16;5012349;28;20030;-86
2021/06/11 09:08:16;;;;;;;5.25;2.58;;;;;;;46.77;10.29;101543.53;4996116;28;20018;-81
2021/06/11 09:10:46;;;;;;;5.60;2.55;;;;;;;47.40;10.13;101541.91;5014588;28;20046;-84
2021/06/11 09:13:22;;;;;;;8.95;3.00;;;;;;;47.53;9.95;101537.34;5015237;28;20034;-79
2021/06/11 09:15:47;;;;;;;3.97;2.25;;;;;;;47.26;10.43;101541.06;5015173;28;20421;-82
2021/06/11 09:18:23;;;;;;;6.22;3.08;;;;;;;47.13;10.51;101540.78;5014487;28;20021;-88
2021/06/11 09:20:49;;;;;;;7.88;2.95;;;;;;;47.33;9.97;101542.34;4999238;28;20029;-95
2021/06/11 09:23:18;;;;;;;4.38;3.30;;;;;;;47.77;9.37;101546.44;5015246;28;20099;-81
2021/06/11 09:25:46;;;;;;;8.60;2.88;;;;;;;47.49;9.93;101537.16;5015188;28;20018;-84
2021/06/11 09:28:17;;;;;;;7.28;3.10;;;;;;;48.56;8.57;101532.72;5031701;28;20057;-85
2021/06/11 09:30:42;;;;;;;7.25;3.38;;;;;;;46.11;10.54;101540.75;5015217;28;20018;-84
2021/06/11 09:33:12;;;;;;;6.60;3.53;;;;;;;46.32;10.07;101535.53;5020597;28;20156;-84
2021/06/11 09:35:45;;;;;;;9.32;3.20;;;;;;;46.89;10.25;101543.00;4998977;28;20022;-84
2021/06/11 09:38:18;;;;;;;8.07;3.47;;;;;;;47.64;9.72;101533.09;5014446;28;20049;-82
2021/06/11 09:41:08;;;;;;;7.53;3.15;;;;;;;48.62;8.62;101531.44;5015361;28;20276;-85
2021/06/11 09:43:34;;;;;;;8.63;2.83;;;;;;;48.79;8.95;101525.78;5015013;28;20022;-88
2021/06/11 09:46:04;;;;;;;4.95;3.08;;;;;;;47.94;9.38;101519.28;5015038;28;20417;-82
2021/06/11 09:48:42;;;;;;;6.88;3.35;;;;;;;49.72;7.89;101529.50;5009614;28;20022;-83
2021/06/11 09:51:17;;;;;;;6.50;3.28;;;;;;;47.69;9.92;101532.97;5011415;28;20044;-84
2021/06/11 09:53:43;;;;;;;11.73;3.35;;;;;;;47.72;9.55;101529.50;5014583;28;20037;-83
2021/06/11 09:56:29;;;;;;;4.72;2.95;;;;;;;48.87;8.71;101519.25;5014487;28;20026;-84
2021/06/11 09:58:55;;;;;;;;;;;;;;;49.40;8.37;101517.38;4996536;28;20065;-82
2021/06/11 10:01:22;;;;;;;8.48;2.67;;;;;;;49.27;8.83;101521.19;5011040;28;19917;-82
2021/06/11 10:03:49;;;;;;;9.13;2.80;;;;;;;48.58;8.78;101519.84;5014125;28;20026;-82
2021/06/11 10:06:17;;;;;;;7.55;2.90;;;;;;;45.66;10.63;101533.84;5014007;28;20036;-85
2021/06/11 10:08:44;;;;;;;4.18;2.50;;;;;;;45.99;10.85;101523.34;5014298;28;20368;-84
2021/06/11 10:11:21;;;;;;;7.47;2.85;;;;;;;44.10;12.11;101516.09;5014082;28;20042;-81
2021/06/11 10:13:47;;;;;;;7.88;2.65;;;;;;;42.19;14.13;101513.53;4998237;28;20045;-81
2021/06/11 10:16:14;;;;;;;8.77;2.80;;;;;;;42.90;13.81;101517.41;5013347;28;20022;-80
2021/06/11 10:18:40;;;;;;;7.40;3.33;;;;;;;42.99;13.12;101518.47;5005970;28;20474;-80
2021/06/11 10:21:07;;;;;;;7.38;2.70;;;;;;;42.08;14.77;101514.69;4994160;28;20030;-80
2021/06/11 10:23:34;;;;;;;10.52;3.50;;;;;;;42.28;14.48;101513.81;4993917;28;20095;-82
2021/06/11 10:26:02;;;;;;;8.00;3.50;;;;;;;42.08;14.71;101498.63;4993800;28;20133;-80
2021/06/11 10:28:45;;;;;;;6.78;3.55;;;;;;;42.87;13.21;101516.00;5005580;28;20036;-82
2021/06/11 10:31:13;;;;;;;11.35;4.00;;;;;;;40.31;16.16;101509.78;5032818;28;20025;-80
2021/06/11 10:33:49;;;;;;;11.38;3.17;;;;;;;42.31;14.50;101510.41;5032776;28;20492;-81
2021/06/11 10:36:27;;;;;;;12.35;3.50;;;;;;;44.13;12.85;101513.81;5018229;28;20033;-81
2021/06/11 10:38:53;;;;;;;6.97;3.30;;;;;;;45.11;11.54;101508.75;5021718;28;20385;-81
2021/06/11 10:41:19;;;;;;;11.43;3.35;;;;;;;46.26;11.45;101507.53;5022918;28;20359;-79
2021/06/11 10:43:45;;;;;;;8.70;3.88;;;;;;;46.27;10.46;101509.22;5012178;28;20128;-80
2021/06/11 10:46:30;;;;;;;6.15;3.05;;;;;;;46.99;10.56;101502.97;5004917;28;20033;-80
2021/06/11 10:49:07;;;;;;;8.13;3.65;;;;;;;44.22;12.21;101507.22;5009665;28;20117;-79
2021/06/11 10:51:44;;;;;;;7.72;3.63;;;;;;;42.21;14.19;101506.47;4996028;28;20378;-80
2021/06/11 10:54:30;;;;;;;7.80;3.50;;;;;;;38.66;18.34;101507.09;5012407;28;20030;-80
2021/06/11 10:57:02;;;;;;;7.45;2.95;;;;;;;40.15;16.11;101505.97;5010377;28;20504;-81
2021/06/11 10:59:32;;;;;;;9.65;3.10;;;;;;;38.73;18.06;101506.91;5012962;28;20026;-79
2021/06/11 11:01:58;;;;;;;11.82;3.25;;;;;;;39.83;17.11;101506.84;5012688;28;20466;-80
2021/06/11 11:04:27;;;;;;;;;;;;;;;41.21;15.92;101499.28;4996461;28;20037;-80
2021/06/11 11:06:53;;;;;;;7.95;3.53;;;;;;;40.27;16.21;101489.78;5020445;28;19914;-79
2021/06/11 11:09:18;;;;;;;;;;;;;;;39.21;17.41;101507.25;5012418;28;20388;-79
2021/06/11 11:11:46;;;;;;;6.13;3.77;;;;;;;37.35;19.56;101496.97;5022793;28;19917;-81
2021/06/11 11:14:40;;;;;;;6.88;3.75;;;;;;;40.75;16.11;101493.44;5032221;28;20103;-81
2021/06/11 11:17:06;;;;;;;8.80;3.58;;;;;;;41.88;14.51;101478.84;4992803;28;20089;-80
2021/06/11 11:19:43;;;;;;;;;;;;;;;43.12;13.59;101483.91;5006967;28;20072;-81